Terminal Aerodrome Forecast
Issued by NWS

Home | Current Version | Previous Version | Text Only | Print | Product List | Glossary On
Versions: 1 2 3 4 5 6 7 8 9 10 11 12 13
484
FTUS42 KTBW 281731
TAFPIE
TAF
KPIE 281731Z 2818/2918 VRB05KT P6SM SCT050
     FM282000 28010KT P6SM FEW060
     FM290100 31004KT P6SM SKC
     FM290300 VRB03KT P6SM SKC
     FM291400 14006KT P6SM SCT250
     FM291700 17007KT P6SM FEW050 SCT250=

USA.gov is the U.S. government's official web portal to all federal, state and local government web resources and services.